Congonhal, Brazil
Current Conditions -  °F | °C
As of 11:00 AM on Friday 28 Nov 2014 (Local Time) from SBPC Reporting Station
Broken Clouds Broken Clouds  
Wind Chill: 75°   Ceiling: 1500
Heat Index: 75°   Visibility: 6mi
Dew Point: 68°   Wind: 6mph
Humidity: 78%   Direction: 50°NE
Pressure: 30.15"   Gusts: NA
Location:  22.15°S, 46.04°W
Report Text: SBPC 281300Z 05005KT 9999 BKN015 24/20 Q1021
Loading
Personal Weather Stations






























Interactive Weather Map New forecast layout! Learn more

10-Day Weather Forecast

Advertisements
Track Severe Weather on mobile